Terminal Aerodrome Forecast
Issued by NWS Twin Cities, MN

Home | Current Version | Previous Version | Text Only | Print | Product List | Glossary On
Versions: 1 2 3 4 5 6 7 8 9 10 11 12 13 14 15 16
247
FTUS43 KMPX 230520
TAFEAU
TAF
KEAU 230520Z 2306/2406 03004KT P6SM FEW050
     FM230900 00000KT 3SM BR SCT002
     FM231330 12008KT P6SM SCT035 BKN150
     FM231600 14010KT 6SM -SHRA SCT030 BKN060
     FM232000 15010KT 4SM TSRA BKN035CB
     FM240300 17008KT 6SM -SHRA SCT030 BKN050=

USA.gov is the U.S. government's official web portal to all federal, state and local government web resources and services.